Time;durP1;ratioP1;P1;durP2;ratioP2;P2;SDS_P1;SDS_P2;PMS_P1;PMS_P2;Temp;Humidity;BMP_temperature;BMP_pressure;BME280_temperature;BME280_humidity;BME280_pressure;Samples;Min_cycle;Max_cycle;Signal;HPM_P1;HPM_P2
2022/02/04 00:20:38;;;;;;;7.93;6.30;;;;;;;5.20;85.00;98362.09;4839996;29;20044;-88
2022/02/04 00:28:22;;;;;;;7.47;5.78;;;;;;;5.42;84.79;98394.94;4841217;29;20395;-90
2022/02/04 00:31:00;;;;;;;8.77;6.43;;;;;;;5.44;85.26;98405.31;4842635;29;20030;-88
2022/02/04 00:33:27;;;;;;;7.90;5.68;;;;;;;5.23;84.83;98361.63;4860088;29;20950;-87
2022/02/04 00:36:02;;;;;;;9.15;6.03;;;;;;;5.48;84.70;98396.69;4842362;29;20476;-88
2022/02/04 00:38:32;;;;;;;9.88;6.70;;;;;;;5.54;84.92;98408.19;4840589;29;20510;-87
2022/02/04 00:41:04;;;;;;;7.95;6.70;;;;;;;5.42;85.58;98392.28;4844986;29;20018;-89
2022/02/04 00:43:30;;;;;;;8.50;6.32;;;;;;;5.52;84.68;98397.84;4831956;29;20027;-89
2022/02/04 00:46:15;;;;;;;7.95;6.35;;;;;;;5.62;85.13;98406.03;4808797;29;20128;-89
2022/02/04 00:48:48;;;;;;;9.07;6.20;;;;;;;5.54;85.32;98403.72;4826287;29;20072;-88
2022/02/04 00:51:33;;;;;;;9.57;6.75;;;;;;;5.46;84.75;98387.38;4839495;29;20046;-89
2022/02/04 01:26:57;;;;;;;14.30;9.57;;;;;;;5.56;85.19;98412.25;4838006;29;20114;-88
2022/02/04 01:29:23;;;;;;;13.20;8.75;;;;;;;5.51;85.41;98412.09;4823409;29;20034;-88
2022/02/04 01:31:49;;;;;;;12.60;8.98;;;;;;;5.50;84.80;98413.16;4838105;29;20107;-89
2022/02/04 01:34:14;;;;;;;11.27;8.60;;;;;;;5.52;84.88;98413.72;4823728;29;20042;-88
2022/02/04 01:36:40;;;;;;;13.45;9.35;;;;;;;5.51;84.78;98416.59;4841668;29;20061;-88
2022/02/04 01:39:05;;;;;;;12.93;9.18;;;;;;;5.23;84.94;98372.22;4823280;29;20034;-87
2022/02/04 01:41:31;;;;;;;13.68;9.38;;;;;;;5.38;85.22;98396.41;4839082;29;20030;-89
2022/02/04 01:43:56;;;;;;;15.10;10.00;;;;;;;5.47;84.84;98407.50;4822427;29;20038;-88
2022/02/04 01:46:21;;;;;;;11.90;8.98;;;;;;;5.27;84.75;98381.31;4839481;29;20411;-88
2022/02/04 01:48:47;;;;;;;14.52;9.57;;;;;;;5.14;84.62;98352.41;4822824;29;20054;-88
2022/02/04 01:51:14;;;;;;;13.05;9.27;;;;;;;5.47;84.82;98410.94;4801938;29;20034;-88
2022/02/04 01:53:41;;;;;;;13.60;9.68;;;;;;;5.56;85.61;98425.47;4822675;29;20056;-88
2022/02/04 01:56:09;;;;;;;12.85;9.32;;;;;;;5.43;85.29;98404.50;4839881;29;20495;-87
2022/02/04 01:58:36;;;;;;;15.32;9.85;;;;;;;5.41;84.51;98395.97;4822920;29;20034;-88
2022/02/04 02:01:03;;;;;;;15.23;9.38;;;;;;;5.45;84.82;98397.13;4840837;29;20083;-86
2022/02/04 02:03:28;;;;;;;15.32;9.73;;;;;;;5.51;85.40;98403.34;4826168;29;20034;-86
2022/02/04 02:05:59;;;;;;;13.98;9.70;;;;;;;5.44;85.15;98386.78;4821041;29;20061;-86
2022/02/04 02:08:24;;;;;;;15.65;9.45;;;;;;;5.41;85.26;98384.59;4841053;29;20065;-87
2022/02/04 02:10:51;;;;;;;14.32;9.98;;;;;;;5.59;85.14;98403.81;4811716;29;20510;-87
2022/02/04 02:38:29;;;;;;;14.90;11.27;;;;;;;5.38;84.99;98374.44;4844358;29;20041;-86
2022/02/04 02:48:30;;;;;;;17.20;12.27;;;;;;;5.30;85.03;98372.94;4857311;29;20049;-86
2022/02/04 02:51:14;;;;;;;15.38;11.20;;;;;;;5.44;85.05;98390.22;4862748;29;20044;-86
2022/02/04 02:58:55;;;;;;;14.60;10.27;;;;;;;5.42;84.89;98381.69;4849644;29;20030;-88
2022/02/04 03:01:21;;;;;;;15.07;10.68;;;;;;;5.39;84.76;98379.53;4819226;29;20037;-88
2022/02/04 03:03:52;;;;;;;17.65;11.90;;;;;;;5.24;85.29;98353.47;4821151;29;20041;-88
2022/02/04 03:06:17;;;;;;;15.32;10.98;;;;;;;5.54;85.23;98395.78;4826064;29;20040;-88
2022/02/04 03:08:43;;;;;;;17.48;11.55;;;;;;;5.50;85.48;98397.28;4839604;29;20491;-89
2022/02/04 03:11:08;;;;;;;15.45;11.02;;;;;;;5.46;85.12;98397.94;4810012;29;20503;-87
2022/02/04 03:13:35;;;;;;;15.32;11.18;;;;;;;5.52;85.17;98405.78;4840939;29;20511;-88
2022/02/04 03:16:03;;;;;;;15.77;10.93;;;;;;;5.43;85.34;98403.69;4840378;29;20614;-88
2022/02/04 03:18:33;;;;;;;13.95;10.30;;;;;;;5.29;85.46;98364.19;4825722;29;20121;-88
2022/02/04 03:21:06;;;;;;;17.60;11.68;;;;;;;5.37;85.12;98371.00;4839671;29;20062;-88
2022/02/04 03:23:35;;;;;;;18.38;11.65;;;;;;;4.92;85.48;98307.16;4840671;29;20506;-88
2022/02/04 03:26:08;;;;;;;14.45;10.55;;;;;;;5.35;85.71;98370.44;4840543;29;20040;-88
2022/02/04 03:28:34;;;;;;;16.88;12.23;;;;;;;5.35;84.95;98372.25;4823073;29;20424;-88
2022/02/04 03:31:00;;;;;;;18.75;11.55;;;;;;;5.56;85.16;98398.19;4844900;29;20058;-88
2022/02/04 03:33:28;;;;;;;19.02;12.73;;;;;;;5.32;84.50;98360.28;4839429;29;20523;-88
2022/02/04 03:35:54;;;;;;;19.33;12.48;;;;;;;5.14;85.65;98341.84;4840199;29;20090;-88
2022/02/04 03:38:19;;;;;;;15.93;11.52;;;;;;;5.23;85.26;98336.00;4824793;29;20030;-88
2022/02/04 03:40:45;;;;;;;18.75;12.70;;;;;;;5.35;84.87;98359.84;4839898;29;20038;-89
2022/02/04 03:43:10;;;;;;;19.33;11.98;;;;;;;5.32;84.94;98355.00;4821895;29;20026;-89
2022/02/04 03:45:35;;;;;;;18.23;12.38;;;;;;;5.26;85.37;98338.19;4823631;29;20089;-88
2022/02/04 03:48:01;;;;;;;16.52;11.52;;;;;;;5.55;85.58;98386.00;4838648;29;20042;-89
2022/02/04 03:50:27;;;;;;;16.08;12.35;;;;;;;5.37;84.94;98362.25;4840742;29;20034;-89
2022/02/04 03:52:52;;;;;;;19.75;12.82;;;;;;;5.38;85.15;98356.72;4840698;29;20041;-89
2022/02/04 03:55:18;;;;;;;17.83;11.82;;;;;;;5.10;85.21;98311.59;4824847;29;20086;-89
2022/02/04 03:57:43;;;;;;;19.10;12.77;;;;;;;5.47;85.39;98368.59;4833822;29;20053;-88
2022/02/04 04:00:12;;;;;;;18.02;12.13;;;;;;;4.95;84.72;98280.28;4833501;29;20126;-88
2022/02/04 04:02:38;;;;;;;17.15;12.48;;;;;;;5.26;85.12;98334.75;4824315;29;20129;-88
2022/02/04 04:05:04;;;;;;;18.02;12.88;;;;;;;5.37;85.23;98347.19;4824049;29;20037;-88
2022/02/04 04:07:30;;;;;;;18.00;12.20;;;;;;;4.99;85.51;98293.84;4838610;29;20074;-88
2022/02/04 04:10:03;;;;;;;17.67;12.50;;;;;;;5.40;84.89;98356.50;4839641;29;20042;-88
2022/02/04 04:12:28;;;;;;;17.67;12.48;;;;;;;5.54;85.29;98376.44;4822453;29;20032;-88
2022/02/04 04:14:56;;;;;;;18.10;12.57;;;;;;;5.56;85.38;98377.84;4839866;29;20488;-86
2022/02/04 04:17:21;;;;;;;15.18;11.15;;;;;;;5.46;85.38;98360.91;4824226;29;20030;-89
2022/02/04 04:19:47;;;;;;;18.00;12.43;;;;;;;5.50;85.37;98364.69;4823031;29;20057;-89
2022/02/04 04:22:13;;;;;;;21.85;13.23;;;;;;;5.47;85.54;98368.59;4846401;29;20042;-87
2022/02/04 04:24:38;;;;;;;18.65;12.40;;;;;;;5.33;85.13;98353.94;4836211;29;20520;-89
2022/02/04 04:27:03;;;;;;;17.20;12.57;;;;;;;5.54;84.70;98387.84;4837846;29;20033;-89
2022/02/04 04:29:29;;;;;;;18.38;13.00;;;;;;;5.08;85.21;98305.72;4814311;29;20049;-89
2022/02/04 04:31:54;;;;;;;18.15;11.82;;;;;;;5.46;85.30;98380.22;4814527;29;20042;-88
2022/02/04 04:34:19;;;;;;;16.60;11.85;;;;;;;5.33;84.97;98359.25;4812609;29;20044;-88
2022/02/04 04:36:45;;;;;;;19.90;13.73;;;;;;;5.23;85.43;98335.19;4852766;29;20029;-87
2022/02/04 04:44:30;;;;;;;18.42;12.65;;;;;;;5.45;85.35;98381.25;4839066;29;20034;-88
2022/02/04 05:30:29;;;;;;;17.58;11.55;;;;;;;5.40;85.42;98367.91;4844524;29;20503;-88
2022/02/04 05:32:58;;;;;;;18.52;10.98;;;;;;;5.34;85.50;98352.94;4826976;29;20042;-89
2022/02/04 05:35:24;;;;;;;15.68;10.82;;;;;;;5.14;84.99;98318.03;4841853;29;20044;-89
2022/02/04 05:37:51;;;;;;;14.60;10.82;;;;;;;5.24;85.35;98327.00;4841958;29;20022;-89
2022/02/04 05:40:19;;;;;;;17.95;11.52;;;;;;;5.42;85.16;98351.81;4841913;29;20048;-89
2022/02/04 05:42:59;;;;;;;15.35;11.07;;;;;;;5.36;85.15;98339.47;4827281;29;20030;-88
2022/02/04 05:45:30;;;;;;;16.50;11.25;;;;;;;5.19;85.63;98320.81;4838379;29;20401;-88
2022/02/04 05:48:02;;;;;;;15.07;9.90;;;;;;;4.82;85.41;98259.31;4839266;29;20037;-88
2022/02/04 05:53:31;;;;;;;14.32;10.18;;;;;;;5.29;85.76;98326.34;4843226;29;20373;-87
2022/02/04 05:58:27;;;;;;;14.65;10.30;;;;;;;5.35;85.40;98346.63;4824454;29;20038;-88
2022/02/04 06:01:40;;;;;;;13.07;10.13;;;;;;;5.04;85.27;98280.75;4837657;29;20457;-88
2022/02/04 06:22:57;;;;;;;14.77;10.18;;;;;;;5.43;85.47;98361.34;4827606;29;20053;-88
2022/02/04 06:25:23;;;;;;;11.93;8.80;;;;;;;5.16;85.75;98321.25;4843580;29;20046;-89
2022/02/04 06:27:49;;;;;;;15.95;10.50;;;;;;;5.45;85.14;98368.03;4847463;29;20025;-89
2022/02/04 06:30:19;;;;;;;15.50;10.68;;;;;;;4.98;85.85;98297.53;4861141;29;20120;-88
2022/02/04 06:32:47;;;;;;;16.75;11.13;;;;;;;4.87;85.79;98277.16;4842576;29;20029;-89
2022/02/04 06:35:16;;;;;;;15.35;10.27;;;;;;;5.51;85.55;98380.34;4842221;29;20118;-87
2022/02/04 06:37:41;;;;;;;14.85;10.55;;;;;;;5.54;85.36;98392.31;4838142;29;20026;-87
2022/02/04 06:40:08;;;;;;;20.17;12.27;;;;;;;5.13;85.83;98319.84;4841557;29;20037;-87
2022/02/04 06:42:33;;;;;;;17.05;12.13;;;;;;;5.53;85.25;98390.69;4826030;29;20057;-86
2022/02/04 06:44:58;;;;;;;19.15;11.77;;;;;;;5.05;85.38;98317.53;4853867;29;20061;-85
2022/02/04 06:47:48;;;;;;;15.52;10.23;;;;;;;5.01;85.26;98308.47;4835960;29;20045;-88
2022/02/04 06:50:33;;;;;;;14.75;10.18;;;;;;;5.24;85.18;98363.28;4842825;29;20069;-89
2022/02/04 06:53:08;;;;;;;15.35;10.52;;;;;;;5.50;86.06;98404.41;4824418;29;20119;-87
2022/02/04 06:55:47;;;;;;;15.82;10.18;;;;;;;4.83;86.01;98289.19;4825114;29;20031;-88
2022/02/04 06:58:16;;;;;;;15.07;9.95;;;;;;;5.37;85.31;98384.25;4825755;29;20109;-88
2022/02/04 07:00:42;;;;;;;15.75;10.55;;;;;;;5.11;85.65;98335.16;4838583;29;20045;-88
2022/02/04 07:03:08;;;;;;;19.00;10.98;;;;;;;5.24;85.65;98352.69;4842638;29;20022;-89
2022/02/04 07:05:51;;;;;;;16.42;10.98;;;;;;;4.86;85.40;98276.34;4842998;29;20400;-88
2022/02/04 07:09:00;;;;;;;19.00;11.70;;;;;;;4.88;84.89;98284.03;4842395;29;20061;-89
2022/02/04 07:21:34;;;;;;;15.70;10.82;;;;;;;5.51;85.41;98367.13;4832187;29;20055;-90
2022/02/04 07:24:07;;;;;;;15.30;11.43;;;;;;;5.22;85.56;98329.09;4845192;29;20030;-87
2022/02/04 07:26:39;;;;;;;16.65;11.80;;;;;;;5.23;85.39;98324.59;4824814;29;20037;-88
2022/02/04 07:29:04;;;;;;;17.55;13.25;;;;;;;5.38;85.11;98338.22;4839508;29;20062;-89
2022/02/04 07:31:34;;;;;;;19.25;13.55;;;;;;;5.23;85.83;98311.38;4865310;29;20018;-92
2022/02/04 07:34:17;;;;;;;20.92;13.77;;;;;;;4.97;85.38;98264.19;4846948;29;20547;-89
2022/02/04 07:42:10;;;;;;;19.42;13.40;;;;;;;5.41;85.18;98321.88;4843039;29;20162;-88
2022/02/04 07:44:35;;;;;;;20.40;13.50;;;;;;;5.11;85.76;98281.47;4826589;29;20120;-88
2022/02/04 07:47:01;;;;;;;20.17;14.05;;;;;;;5.33;85.31;98306.31;4841492;29;20034;-88
2022/02/04 07:49:27;;;;;;;21.20;13.23;;;;;;;4.89;85.31;98232.78;4811478;29;20075;-88
2022/02/04 07:51:53;;;;;;;20.73;14.50;;;;;;;5.41;85.23;98307.84;4840062;29;20034;-87
2022/02/04 07:54:23;;;;;;;23.85;15.02;;;;;;;5.31;85.39;98300.44;4820596;29;20137;-88
2022/02/04 07:56:59;;;;;;;;;;;;;;;;;;;;;
2022/02/04 07:59:24;;;;;;;21.08;14.10;;;;;;;5.20;85.95;98278.25;4842331;29;20025;-88
2022/02/04 08:01:50;;;;;;;22.10;14.73;;;;;;;4.86;85.64;98212.06;4838292;29;20129;-87
2022/02/04 08:04:24;;;;;;;26.02;16.10;;;;;;;5.20;85.92;98262.38;4823503;29;20022;-88
2022/02/04 08:06:57;;;;;;;25.92;15.15;;;;;;;5.14;85.26;98246.59;4829324;29;20021;-88
2022/02/04 08:17:36;;;;;;;26.27;16.80;;;;;;;5.47;85.19;98280.47;4843548;29;20026;-88
2022/02/04 08:48:18;;;;;;;17.27;11.02;;;;;;;5.00;85.42;98202.91;4847150;29;20040;-89
2022/02/04 08:56:22;;;;;;;14.90;11.00;;;;;;;5.43;85.78;98256.31;4844834;29;20471;-89
2022/02/04 08:58:54;;;;;;;14.65;10.48;;;;;;;5.03;86.26;98194.50;4843466;29;20130;-87
2022/02/04 09:01:32;;;;;;;14.13;9.93;;;;;;;5.43;86.20;98271.38;4844262;29;20399;-87
2022/02/04 09:04:11;;;;;;;13.13;8.95;;;;;;;5.28;86.45;98245.38;4845018;29;20403;-87
2022/02/04 09:06:44;;;;;;;13.20;9.32;;;;;;;5.02;86.28;98214.06;4844625;29;20506;-87
2022/02/04 09:09:15;;;;;;;11.95;8.55;;;;;;;5.56;85.69;98279.09;4841136;29;20030;-88
2022/02/04 09:16:49;;;;;;;10.27;8.02;;;;;;;5.76;86.20;98332.50;4826023;29;20630;-89
2022/02/04 09:21:10;;;;;;;8.65;6.78;;;;;;;5.71;86.34;98290.81;4827458;29;20073;-87
2022/02/04 09:23:36;;;;;;;11.02;7.68;;;;;;;5.51;85.89;98253.31;4827227;29;20083;-89
2022/02/04 09:26:06;;;;;;;9.30;6.60;;;;;;;5.68;85.80;98267.44;4825583;29;20032;-88
2022/02/04 09:28:35;;;;;;;11.70;8.18;;;;;;;5.32;86.21;98209.47;4826139;29;20108;-88
2022/02/04 09:31:01;;;;;;;10.80;7.43;;;;;;;5.39;85.67;98204.88;4833213;29;20078;-90
2022/02/04 09:33:26;;;;;;;9.90;7.10;;;;;;;5.44;85.96;98204.97;4862032;29;20453;-88
2022/02/04 09:35:57;;;;;;;6.68;5.90;;;;;;;5.55;85.63;98225.34;4844652;29;20044;-89
2022/02/04 09:38:25;;;;;;;8.02;5.82;;;;;;;5.63;85.62;98225.00;4848246;29;20018;-92
2022/02/04 09:40:50;;;;;;;8.50;5.65;;;;;;;5.92;86.22;98255.03;4867473;29;20047;-88
2022/02/04 09:43:16;;;;;;;6.93;4.90;;;;;;;5.75;86.23;98235.56;4847300;29;20033;-88
2022/02/04 09:45:47;;;;;;;7.03;5.13;;;;;;;5.61;85.66;98221.78;4843117;29;20045;-89
2022/02/04 09:48:13;;;;;;;6.15;5.20;;;;;;;6.05;86.44;98282.06;4848914;29;20026;-90
2022/02/04 09:51:15;;;;;;;6.82;5.15;;;;;;;5.50;85.45;98198.78;4854134;29;20038;-90
2022/02/04 10:16:38;;;;;;;7.25;5.00;;;;;;;5.97;85.88;98261.25;4843153;29;20026;-88
2022/02/04 10:22:26;;;;;;;6.05;4.63;;;;;;;5.93;85.88;98251.34;4822776;29;20042;-90
2022/02/04 10:25:24;;;;;;;5.55;4.57;;;;;;;5.63;85.62;98187.94;4808176;29;20044;-90
2022/02/04 10:28:08;;;;;;;4.70;3.40;;;;;;;5.39;85.66;98144.03;4841857;29;20049;-88
2022/02/04 10:31:25;;;;;;;4.55;3.13;;;;;;;5.52;85.98;98169.44;4841835;29;20053;-90
2022/02/04 10:34:12;;;;;;;3.17;2.58;;;;;;;5.48;85.51;98155.88;4844837;29;20033;-89
2022/02/04 10:37:15;;;;;;;4.30;3.13;;;;;;;5.35;85.59;98132.31;4840346;29;20040;-89
2022/02/04 10:40:03;;;;;;;4.25;3.35;;;;;;;5.64;85.32;98165.72;4838061;29;20034;-90
2022/02/04 10:43:17;;;;;;;5.20;3.50;;;;;;;5.94;85.62;98200.78;4827902;29;20093;-90
2022/02/04 10:45:58;;;;;;;5.55;3.92;;;;;;;5.73;85.32;98166.16;4834214;29;20079;-88
2022/02/04 10:54:12;;;;;;;4.35;3.33;;;;;;;6.29;85.75;98229.81;4857396;29;20101;-88
2022/02/04 11:02:17;;;;;;;5.40;3.45;;;;;;;6.34;85.54;98219.31;4838926;29;20037;-89
2022/02/04 11:04:53;;;;;;;4.07;3.13;;;;;;;5.73;85.20;98114.00;4840846;29;20033;-89
2022/02/04 11:07:46;;;;;;;4.38;3.95;;;;;;;5.83;85.44;98135.38;4837537;29;20037;-89
2022/02/04 12:25:06;;;;;;;4.55;3.55;;;;;;;5.49;84.95;97921.94;4856315;29;20065;-90
2022/02/04 12:55:20;;;;;;;5.68;4.07;;;;;;;6.58;85.33;98042.38;4869318;29;20135;-92
2022/02/04 14:02:56;;;;;;;3.45;2.78;;;;;;;6.18;84.89;97878.28;4863622;29;20038;-89
2022/02/04 14:05:31;;;;;;;4.22;3.38;;;;;;;6.43;85.34;97907.78;4860694;29;20433;-90
2022/02/04 14:08:14;;;;;;;2.90;2.60;;;;;;;6.39;85.04;97911.19;4864027;29;20851;-90
2022/02/04 14:10:58;;;;;;;2.90;2.60;;;;;;;5.97;84.73;97839.31;4862868;29;20037;-89
2022/02/04 14:13:26;;;;;;;3.10;2.72;;;;;;;6.25;85.00;97883.41;4867372;29;20066;-89
2022/02/04 14:15:59;;;;;;;5.32;2.55;;;;;;;6.28;84.86;97881.09;4860212;29;20030;-90
2022/02/04 14:18:26;;;;;;;4.43;2.95;;;;;;;6.20;85.18;97878.88;4862965;29;20476;-89
2022/02/04 14:20:52;;;;;;;4.95;2.92;;;;;;;5.88;84.87;97809.00;4862714;29;20120;-89
2022/02/04 14:23:17;;;;;;;3.58;2.88;;;;;;;5.93;85.03;97811.72;4867123;29;20124;-90
2022/02/04 14:28:32;;;;;;;3.20;2.90;;;;;;;6.25;85.20;97856.91;4863691;29;20025;-89
2022/02/04 14:31:11;;;;;;;3.90;3.13;;;;;;;6.38;85.17;97872.47;4862353;29;20492;-89
2022/02/04 14:54:25;;;;;;;;;;;;;;;;;;;;;
2022/02/04 15:06:56;;;;;;;;;;;;;;;;;;;;;
2022/02/04 15:09:37;;;;;;;4.82;2.95;;;;;;;5.95;84.65;97777.84;4855710;29;20041;-91
2022/02/04 15:16:35;;;;;;;3.60;3.20;;;;;;;6.09;85.13;97802.16;4833524;29;20042;-90
2022/02/04 15:19:04;;;;;;;6.50;3.05;;;;;;;6.19;85.46;97815.50;4837452;29;20097;-90
2022/02/04 15:21:29;;;;;;;6.22;3.38;;;;;;;6.44;85.05;97863.53;4857800;29;20104;-90
2022/02/04 15:23:59;;;;;;;2.97;2.72;;;;;;;6.05;85.74;97801.81;4859047;29;20170;-90
2022/02/04 15:27:01;;;;;;;;;;;;;;;;;;;;;
2022/02/04 15:29:55;;;;;;;3.00;2.50;;;;;;;5.80;84.77;97765.19;4856116;29;20041;-90
2022/02/04 15:32:23;;;;;;;3.58;3.28;;;;;;;5.77;85.09;97744.50;4860915;29;20097;-91
2022/02/04 15:35:04;;;;;;;3.10;2.80;;;;;;;5.66;84.57;97715.47;4879124;29;20033;-91
2022/02/04 15:38:29;;;;;;;;;;;;;;;;;;;;;
2022/02/04 15:41:03;;;;;;;3.28;2.60;;;;;;;5.70;84.76;97719.25;4857401;29;20522;-90
2022/02/04 15:44:02;;;;;;;3.35;2.30;;;;;;;5.71;84.77;97710.25;4859875;29;20041;-92
2022/02/04 15:49:55;;;;;;;5.47;2.90;;;;;;;6.02;84.80;97755.47;4869652;29;20621;-91
2022/02/04 16:17:55;;;;;;;4.45;3.58;;;;;;;5.55;84.98;97660.84;4841130;29;20072;-91
2022/02/04 16:20:39;;;;;;;;;;;;;;;6.20;85.16;97748.25;4862168;29;20172;-90
2022/02/04 16:23:13;;;;;;;7.32;3.42;;;;;;;5.62;84.43;97678.13;4857539;29;20316;-90
2022/02/04 16:25:59;;;;;;;3.53;2.85;;;;;;;5.79;83.98;97713.28;4858003;29;20493;-90
2022/02/04 16:28:41;;;;;;;4.15;3.25;;;;;;;5.89;84.19;97717.94;4853619;29;20061;-90
2022/02/04 16:31:09;;;;;;;2.88;2.50;;;;;;;5.63;84.06;97682.38;4845710;29;20050;-90
2022/02/04 16:33:57;;;;;;;2.85;2.65;;;;;;;6.02;84.81;97744.06;4857195;29;20332;-91
2022/02/04 16:36:24;;;;;;;3.17;2.70;;;;;;;5.62;84.56;97672.81;4859245;29;20101;-91
2022/02/04 16:38:54;;;;;;;2.97;2.50;;;;;;;5.45;84.38;97658.84;4855799;29;20025;-92
2022/02/04 16:41:27;;;;;;;2.67;2.20;;;;;;;5.49;84.54;97652.00;4856403;29;20112;-92
2022/02/04 16:43:58;;;;;;;2.30;2.10;;;;;;;5.29;83.95;97618.16;4857263;29;20078;-91
2022/02/04 16:46:24;;;;;;;2.97;2.35;;;;;;;5.48;85.27;97649.63;4866986;29;20037;-90
2022/02/04 16:48:50;;;;;;;2.60;2.40;;;;;;;5.81;84.70;97695.28;4855067;29;20036;-91
2022/02/04 16:51:15;;;;;;;2.67;2.00;;;;;;;6.03;84.44;97717.31;4880322;29;20552;-90
2022/02/04 16:53:43;;;;;;;2.28;2.08;;;;;;;5.51;84.10;97649.09;4872150;29;20045;-91
2022/02/04 16:56:09;;;;;;;3.80;2.08;;;;;;;5.43;84.18;97628.38;4867429;29;20093;-91
2022/02/04 16:58:35;;;;;;;2.95;2.30;;;;;;;6.08;84.51;97729.81;4877343;29;20037;-91
2022/02/04 17:01:01;;;;;;;3.15;2.15;;;;;;;5.59;84.11;97649.47;4869845;29;20032;-91
2022/02/04 17:03:27;;;;;;;1.95;1.85;;;;;;;5.35;83.83;97612.94;4859408;29;20030;-91
2022/02/04 17:05:55;;;;;;;1.77;1.67;;;;;;;5.82;83.64;97681.03;4846706;29;20040;-91
2022/02/04 17:08:32;;;;;;;1.80;1.70;;;;;;;5.67;84.24;97662.31;4861519;29;20433;-90
2022/02/04 17:11:08;;;;;;;3.05;2.38;;;;;;;6.05;83.84;97715.22;4862529;29;20064;-90
2022/02/04 17:13:34;;;;;;;;;;;;;;;6.04;84.50;97705.69;4862353;29;20030;-91
2022/02/04 17:15:59;;;;;;;1.97;1.80;;;;;;;5.72;83.94;97667.66;4875221;29;19972;-90
2022/02/04 17:18:25;;;;;;;1.67;1.58;;;;;;;5.67;83.92;97667.59;4862601;29;20261;-91
2022/02/04 17:20:51;;;;;;;2.88;1.70;;;;;;;5.98;84.28;97693.41;4862059;29;20024;-91
2022/02/04 17:23:26;;;;;;;2.47;2.15;;;;;;;5.62;84.25;97633.13;4861918;29;20029;-90
2022/02/04 17:25:55;;;;;;;2.60;2.40;;;;;;;5.89;83.93;97662.34;4861653;29;20017;-91
2022/02/04 17:28:22;;;;;;;2.75;2.55;;;;;;;6.03;84.60;97680.22;4861370;29;20128;-90
2022/02/04 17:30:47;;;;;;;2.35;1.85;;;;;;;5.62;84.15;97614.59;4857930;29;20415;-90
2022/02/04 17:33:13;;;;;;;2.50;2.03;;;;;;;5.85;84.17;97662.00;4861112;29;20030;-91
2022/02/04 17:35:38;;;;;;;2.53;2.20;;;;;;;5.81;83.52;97665.41;4862274;29;20252;-89
2022/02/04 17:38:04;;;;;;;1.52;1.42;;;;;;;5.93;83.09;97658.13;4859861;29;20124;-90
2022/02/04 17:40:29;;;;;;;2.95;1.58;;;;;;;6.01;84.05;97670.94;4860128;29;20477;-91
2022/02/04 17:42:58;;;;;;;2.17;1.45;;;;;;;5.75;83.61;97637.25;4860111;29;20053;-90
2022/02/04 17:45:23;;;;;;;5.63;1.85;;;;;;;5.80;83.65;97643.41;4867156;29;20400;-90
2022/02/04 17:48:02;;;;;;;2.47;2.28;;;;;;;5.75;83.73;97629.28;4830332;29;20063;-90
2022/02/04 17:50:32;;;;;;;1.70;1.60;;;;;;;5.85;83.73;97653.28;4862465;29;20037;-90
2022/02/04 17:53:05;;;;;;;2.00;1.85;;;;;;;5.78;84.08;97631.47;4847658;29;20033;-89
2022/02/04 17:55:38;;;;;;;2.10;1.55;;;;;;;5.85;83.38;97635.53;4831299;29;20070;-88
2022/02/04 17:58:21;;;;;;;1.83;1.50;;;;;;;5.69;83.67;97614.41;4846893;29;20576;-89
2022/02/04 18:09:06;;;;;;;2.50;1.90;;;;;;;5.68;84.26;97629.47;4860048;29;20058;-89
2022/02/04 18:11:32;;;;;;;1.98;1.75;;;;;;;5.68;83.87;97626.84;4859562;29;20037;-90
2022/02/04 18:13:57;;;;;;;2.78;1.70;;;;;;;5.75;85.02;97627.44;4838575;29;20235;-90
2022/02/04 18:16:22;;;;;;;5.57;2.10;;;;;;;5.85;84.22;97643.47;4860363;29;20041;-89
2022/02/04 18:18:48;;;;;;;2.97;2.25;;;;;;;5.36;83.91;97573.00;4844844;29;20521;-89
2022/02/04 18:21:14;;;;;;;2.30;2.08;;;;;;;5.80;84.44;97632.00;4863034;29;20036;-89
2022/02/04 18:23:39;;;;;;;2.08;1.65;;;;;;;5.63;84.53;97608.28;4843466;29;20029;-89
2022/02/04 18:26:04;;;;;;;3.40;2.35;;;;;;;5.56;84.04;97597.06;4859154;29;20033;-89
2022/02/04 18:28:30;;;;;;;2.63;2.20;;;;;;;5.37;83.63;97564.03;4843734;29;20041;-90
2022/02/04 18:30:56;;;;;;;2.38;2.25;;;;;;;5.52;84.01;97593.31;4858783;29;20043;-90
2022/02/04 18:33:23;;;;;;;2.13;1.98;;;;;;;5.51;83.93;97606.78;4858550;29;20029;-89
2022/02/04 18:35:56;;;;;;;1.90;1.77;;;;;;;5.44;83.74;97596.38;4858953;29;20060;-89
2022/02/04 18:38:32;;;;;;;2.38;2.17;;;;;;;5.85;83.98;97654.06;4844316;29;20030;-88
2022/02/04 18:43:39;;;;;;;2.05;1.90;;;;;;;5.82;84.00;97651.91;4858747;29;20037;-89
2022/02/04 18:48:54;;;;;;;2.33;2.13;;;;;;;5.74;84.13;97660.28;4853638;29;20069;-89
2022/02/04 18:51:48;;;;;;;2.35;2.15;;;;;;;5.73;83.46;97656.03;4855616;29;20037;-89
2022/02/04 18:59:34;;;;;;;3.15;2.47;;;;;;;5.79;84.21;97707.97;4844435;29;20030;-89
2022/02/04 19:01:59;;;;;;;2.38;2.10;;;;;;;5.80;84.47;97728.13;4852709;29;20042;-89
2022/02/04 19:04:35;;;;;;;6.55;2.42;;;;;;;5.91;84.33;97772.25;4835306;29;20025;-89
2022/02/04 19:07:07;;;;;;;3.08;2.50;;;;;;;5.83;84.00;97769.97;4883346;29;20021;-90
2022/02/04 19:09:34;;;;;;;2.80;2.55;;;;;;;5.56;85.08;97747.91;4852799;29;20033;-89
2022/02/04 21:58:46;;;;;;;6.40;4.38;;;;;;;4.48;82.64;98341.91;4845018;29;20044;-88
